Time;durP1;ratioP1;P1;durP2;ratioP2;P2;SDS_P1;SDS_P2;PMS_P1;PMS_P2;Temp;Humidity;BMP_temperature;BMP_pressure;BME280_temperature;BME280_humidity;BME280_pressure;Samples;Min_cycle;Max_cycle;Signal;HPM_P1;HPM_P2
2021/10/11 00:01:02;;;;;;;19.33;16.30;;;5.50;99.90;;;;;;5094041;28;20732;-61
2021/10/11 00:03:30;;;;;;;19.20;15.90;;;5.40;99.90;;;;;;5093780;28;20208;-62
2021/10/11 00:05:59;;;;;;;20.10;15.87;;;5.40;99.90;;;;;;5094157;28;20228;-62
2021/10/11 00:08:27;;;;;;;18.20;15.30;;;5.40;99.90;;;;;;5093860;28;20304;-62
2021/10/11 00:10:55;;;;;;;21.67;16.47;;;5.30;99.90;;;;;;5093613;28;20325;-61
2021/10/11 00:13:23;;;;;;;20.90;17.03;;;5.30;99.90;;;;;;5093845;28;20293;-62
2021/10/11 00:15:51;;;;;;;22.67;16.60;;;5.40;99.90;;;;;;5093934;28;20244;-62
2021/10/11 00:18:19;;;;;;;21.67;16.30;;;5.30;99.90;;;;;;5093630;28;20207;-62
2021/10/11 00:20:47;;;;;;;21.63;15.77;;;5.30;99.90;;;;;;5093719;28;20291;-61
2021/10/11 00:23:16;;;;;;;20.40;16.27;;;5.40;99.90;;;;;;5093754;28;20244;-62
2021/10/11 00:25:44;;;;;;;18.97;15.63;;;5.40;99.90;;;;;;5093765;28;20283;-61
2021/10/11 00:28:12;;;;;;;21.40;16.83;;;5.30;99.90;;;;;;5093676;28;20205;-61
2021/10/11 00:30:39;;;;;;;20.53;15.70;;;5.40;99.90;;;;;;5093248;28;20555;-61
2021/10/11 00:33:07;;;;;;;21.37;16.20;;;5.30;99.90;;;;;;5092640;28;20206;-62
2021/10/11 00:35:35;;;;;;;18.93;15.70;;;5.30;99.90;;;;;;5093574;28;20314;-62
2021/10/11 00:38:03;;;;;;;21.00;15.13;;;5.30;99.90;;;;;;5093552;28;20198;-61
2021/10/11 00:40:33;;;;;;;21.33;16.10;;;5.30;99.90;;;;;;5093122;28;20715;-61
2021/10/11 00:43:01;;;;;;;19.93;15.00;;;5.20;99.90;;;;;;5093140;28;20297;-61
2021/10/11 00:45:29;;;;;;;21.07;16.40;;;5.10;99.90;;;;;;5093207;28;20538;-62
2021/10/11 00:47:57;;;;;;;23.70;16.70;;;5.10;99.90;;;;;;5092840;28;20746;-60
2021/10/11 00:50:25;;;;;;;19.93;15.80;;;5.10;99.90;;;;;;5093259;28;20291;-61
2021/10/11 00:52:53;;;;;;;21.17;16.03;;;5.00;99.90;;;;;;5093022;28;20658;-61
2021/10/11 00:55:22;;;;;;;20.20;16.63;;;5.00;99.90;;;;;;5093022;28;20729;-62
2021/10/11 00:57:51;;;;;;;21.33;15.33;;;5.00;99.90;;;;;;5092914;28;20292;-61
2021/10/11 01:00:19;;;;;;;19.33;15.50;;;5.00;99.90;;;;;;5092826;28;20203;-62
2021/10/11 01:02:47;;;;;;;18.93;15.50;;;5.00;99.90;;;;;;5092636;28;20667;-61
2021/10/11 01:05:15;;;;;;;18.30;15.47;;;4.90;99.90;;;;;;5092715;28;20292;-62
2021/10/11 01:07:43;;;;;;;20.47;15.23;;;4.90;99.90;;;;;;5092898;28;20360;-61
2021/10/11 01:10:11;;;;;;;21.23;15.97;;;4.90;99.90;;;;;;5092527;28;20228;-61
2021/10/11 01:12:39;;;;;;;18.77;16.10;;;4.90;99.90;;;;;;5092887;28;20313;-60
2021/10/11 01:15:09;;;;;;;18.37;15.07;;;5.00;99.90;;;;;;5092996;28;20205;-61
2021/10/11 01:17:37;;;;;;;21.10;15.40;;;5.00;99.90;;;;;;5092550;28;20204;-62
2021/10/11 01:20:08;;;;;;;20.27;16.87;;;5.00;99.90;;;;;;5092664;28;20292;-62
2021/10/11 01:22:38;;;;;;;20.37;15.53;;;5.00;99.90;;;;;;5092859;28;20178;-62
2021/10/11 01:25:09;;;;;;;23.13;17.07;;;4.90;99.90;;;;;;5092741;28;20185;-61
2021/10/11 01:27:36;;;;;;;19.97;16.00;;;4.90;99.90;;;;;;5092958;28;20293;-61
2021/10/11 01:30:06;;;;;;;20.50;15.50;;;4.90;99.90;;;;;;5092890;28;20197;-62
2021/10/11 01:32:34;;;;;;;22.03;16.03;;;4.90;99.90;;;;;;5092913;28;20256;-61
2021/10/11 01:35:02;;;;;;;18.73;15.60;;;4.90;99.90;;;;;;5092793;28;20236;-61
2021/10/11 01:37:31;;;;;;;19.90;15.73;;;4.80;99.90;;;;;;5092653;28;20209;-61
2021/10/11 01:39:59;;;;;;;17.97;14.60;;;4.80;99.90;;;;;;5092654;28;20428;-62
2021/10/11 01:42:27;;;;;;;22.63;16.13;;;4.80;99.90;;;;;;5092206;28;20234;-62
2021/10/11 01:44:55;;;;;;;21.13;15.90;;;4.80;99.90;;;;;;5095804;28;20295;-63
2021/10/11 01:47:23;;;;;;;20.40;16.10;;;4.80;99.90;;;;;;5096687;28;20232;-61
2021/10/11 01:49:51;;;;;;;18.40;15.40;;;4.80;99.90;;;;;;5096644;28;20226;-61
2021/10/11 01:52:19;;;;;;;19.77;15.47;;;4.80;99.90;;;;;;5096650;28;20312;-62
2021/10/11 01:54:48;;;;;;;18.53;15.60;;;4.90;99.90;;;;;;5096570;28;20295;-61
2021/10/11 01:57:16;;;;;;;18.33;15.37;;;4.90;99.90;;;;;;5096179;28;20963;-61
2021/10/11 01:59:45;;;;;;;19.63;15.53;;;4.90;99.90;;;;;;5096231;28;20248;-61
2021/10/11 02:02:13;;;;;;;20.63;15.70;;;4.80;99.90;;;;;;5095911;28;20202;-61
2021/10/11 02:04:41;;;;;;;18.97;14.33;;;4.80;99.90;;;;;;5096233;28;20222;-61
2021/10/11 02:07:09;;;;;;;24.63;16.20;;;4.80;99.90;;;;;;5096139;28;20649;-61
2021/10/11 02:09:37;;;;;;;21.77;15.90;;;4.80;99.90;;;;;;5095996;28;20229;-61
2021/10/11 02:12:06;;;;;;;18.57;15.50;;;4.70;99.90;;;;;;5096338;28;20641;-61
2021/10/11 02:14:34;;;;;;;19.00;14.97;;;4.80;99.90;;;;;;5096027;28;20211;-61
2021/10/11 02:17:02;;;;;;;18.20;14.93;;;4.80;99.90;;;;;;5096078;28;20210;-62
2021/10/11 02:19:30;;;;;;;18.63;14.30;;;4.80;99.90;;;;;;5095812;28;20301;-62
2021/10/11 02:21:58;;;;;;;18.07;14.67;;;4.80;99.90;;;;;;5095841;28;20643;-62
2021/10/11 02:24:25;;;;;;;18.07;14.13;;;4.80;99.90;;;;;;5095912;28;20206;-72
2021/10/11 02:26:53;;;;;;;17.13;14.33;;;4.90;99.90;;;;;;5094717;28;20236;-75
2021/10/11 02:29:22;;;;;;;17.40;14.07;;;4.90;99.90;;;;;;5093816;28;20630;-73
2021/10/11 02:31:51;;;;;;;16.60;13.93;;;4.90;99.90;;;;;;5093980;28;20816;-75
2021/10/11 02:34:19;;;;;;;17.53;14.20;;;4.80;99.90;;;;;;5094829;28;20232;-73
2021/10/11 02:36:47;;;;;;;18.33;14.53;;;4.90;99.90;;;;;;5094682;28;20292;-74
2021/10/11 02:39:15;;;;;;;18.03;14.80;;;4.80;99.90;;;;;;5094812;28;20206;-73
2021/10/11 02:41:42;;;;;;;18.30;14.27;;;4.90;99.90;;;;;;5093322;28;20198;-73
2021/10/11 02:44:10;;;;;;;21.80;15.03;;;4.90;99.90;;;;;;5094499;28;20283;-73
2021/10/11 02:46:40;;;;;;;16.77;13.97;;;4.90;99.90;;;;;;5095556;28;20285;-74
2021/10/11 02:49:09;;;;;;;18.70;14.40;;;5.00;99.90;;;;;;5093535;28;20291;-74
2021/10/11 02:51:36;;;;;;;19.57;14.33;;;4.90;99.90;;;;;;5093859;28;20585;-74
2021/10/11 02:54:04;;;;;;;18.10;14.03;;;5.00;99.90;;;;;;5094805;28;20657;-74
2021/10/11 02:56:32;;;;;;;18.67;14.30;;;4.90;99.90;;;;;;5094339;28;20246;-74
2021/10/11 02:59:00;;;;;;;17.87;13.93;;;4.90;99.90;;;;;;5093952;28;20228;-74
2021/10/11 03:01:28;;;;;;;17.73;14.60;;;4.90;99.90;;;;;;5094396;28;20205;-74
2021/10/11 03:03:57;;;;;;;19.23;14.73;;;4.90;99.90;;;;;;5094463;28;20201;-72
2021/10/11 03:06:25;;;;;;;19.90;14.90;;;4.90;99.90;;;;;;5093653;28;20207;-75
2021/10/11 03:08:56;;;;;;;18.63;14.37;;;4.90;99.90;;;;;;5094238;28;20193;-73
2021/10/11 03:11:24;;;;;;;18.10;14.53;;;4.90;99.90;;;;;;5093927;28;20607;-74
2021/10/11 03:13:52;;;;;;;16.07;14.07;;;4.90;99.90;;;;;;5093581;28;20311;-74
2021/10/11 03:16:19;;;;;;;19.43;14.33;;;4.90;99.90;;;;;;5093857;28;20201;-73
2021/10/11 03:18:48;;;;;;;18.83;15.87;;;5.00;99.90;;;;;;5093550;28;20202;-74
2021/10/11 03:21:20;;;;;;;27.93;23.10;;;5.00;99.90;;;;;;5092690;28;20782;-74
2021/10/11 03:23:49;;;;;;;24.40;20.83;;;5.00;99.90;;;;;;5093388;28;20277;-73
2021/10/11 03:26:17;;;;;;;27.37;19.67;;;4.90;99.90;;;;;;5093889;28;20617;-75
2021/10/11 03:28:46;;;;;;;25.17;18.77;;;5.10;99.90;;;;;;5092695;28;20677;-74
2021/10/11 03:31:14;;;;;;;19.67;17.00;;;5.00;99.90;;;;;;5093593;28;20648;-74
2021/10/11 03:33:42;;;;;;;19.17;15.50;;;5.00;99.90;;;;;;5094005;28;20221;-73
2021/10/11 03:36:10;;;;;;;19.13;15.37;;;5.00;99.90;;;;;;5093781;28;20751;-73
2021/10/11 03:38:39;;;;;;;18.87;15.20;;;5.00;99.90;;;;;;5093692;28;20238;-73
2021/10/11 03:41:07;;;;;;;18.30;14.70;;;5.00;99.90;;;;;;5093838;28;20291;-74
2021/10/11 03:43:34;;;;;;;17.37;14.27;;;5.00;99.90;;;;;;5093534;28;20285;-75
2021/10/11 03:46:02;;;;;;;19.37;13.77;;;5.10;99.90;;;;;;5093639;28;20197;-74
2021/10/11 03:48:30;;;;;;;17.23;13.53;;;5.10;99.90;;;;;;5092405;28;20203;-74
2021/10/11 03:50:58;;;;;;;16.40;13.97;;;5.10;99.90;;;;;;5093308;28;20644;-73
2021/10/11 03:53:26;;;;;;;18.37;13.50;;;5.10;99.90;;;;;;5091961;28;20708;-74
2021/10/11 03:55:55;;;;;;;15.53;12.87;;;5.10;99.90;;;;;;5092489;28;20202;-75
2021/10/11 03:58:23;;;;;;;18.43;13.50;;;5.10;99.90;;;;;;5092834;28;20201;-74
2021/10/11 04:00:50;;;;;;;16.50;13.67;;;5.20;99.90;;;;;;5093461;28;20201;-72
2021/10/11 04:03:18;;;;;;;15.40;13.20;;;5.20;99.90;;;;;;5092956;28;20202;-74
2021/10/11 04:05:46;;;;;;;16.93;13.70;;;5.20;99.90;;;;;;5092986;28;20225;-74
2021/10/11 04:08:18;;;;;;;17.73;13.63;;;5.20;99.90;;;;;;5093036;28;20688;-74
2021/10/11 04:10:52;;;;;;;17.57;13.20;;;5.30;99.90;;;;;;5092716;28;20229;-73
2021/10/11 04:13:22;;;;;;;19.77;13.33;;;5.30;99.90;;;;;;5091579;28;20233;-74
2021/10/11 04:15:50;;;;;;;17.97;12.57;;;5.30;99.90;;;;;;5091845;28;20574;-73
2021/10/11 04:18:18;;;;;;;18.00;13.77;;;5.30;99.90;;;;;;5091503;28;20202;-74
2021/10/11 04:20:46;;;;;;;16.50;12.77;;;5.30;99.90;;;;;;5091872;28;20205;-75
2021/10/11 04:23:14;;;;;;;19.93;12.93;;;5.30;99.90;;;;;;5091861;28;20202;-74
2021/10/11 04:25:42;;;;;;;17.70;13.10;;;5.40;99.90;;;;;;5091628;28;20213;-73
2021/10/11 04:28:11;;;;;;;15.33;12.93;;;5.40;99.90;;;;;;5091368;28;20764;-73
2021/10/11 04:30:41;;;;;;;15.37;11.80;;;5.50;99.90;;;;;;5092504;28;20201;-73
2021/10/11 04:33:09;;;;;;;14.63;12.07;;;5.50;99.90;;;;;;5092594;28;20619;-74
2021/10/11 04:35:37;;;;;;;17.63;12.57;;;5.50;99.90;;;;;;5091393;28;20735;-73
2021/10/11 04:38:05;;;;;;;14.20;11.63;;;5.50;99.90;;;;;;5091455;28;20768;-74
2021/10/11 04:40:34;;;;;;;17.20;12.47;;;5.50;99.90;;;;;;5091874;28;20223;-73
2021/10/11 04:43:02;;;;;;;15.00;11.53;;;5.60;99.90;;;;;;5092720;28;20226;-74
2021/10/11 04:45:31;;;;;;;16.00;12.57;;;5.60;99.90;;;;;;5092525;28;20665;-73
2021/10/11 04:48:01;;;;;;;13.73;11.73;;;5.60;99.90;;;;;;5091940;28;20454;-74
2021/10/11 04:50:31;;;;;;;16.50;13.07;;;5.60;99.90;;;;;;5091155;28;20186;-74
2021/10/11 04:52:58;;;;;;;16.60;12.47;;;5.60;99.90;;;;;;5091512;28;20621;-74
2021/10/11 04:55:27;;;;;;;16.37;12.33;;;5.60;99.90;;;;;;5092604;28;20198;-75
2021/10/11 04:57:55;;;;;;;15.63;12.33;;;5.60;99.90;;;;;;5091815;28;20638;-74
2021/10/11 05:00:24;;;;;;;18.03;12.83;;;5.60;99.90;;;;;;5092477;28;20263;-73
2021/10/11 05:02:51;;;;;;;13.30;11.67;;;5.60;99.90;;;;;;5091636;28;20392;-74
2021/10/11 05:05:21;;;;;;;15.60;12.10;;;5.60;99.90;;;;;;5091134;28;20301;-73
2021/10/11 05:07:49;;;;;;;14.67;12.67;;;5.70;99.90;;;;;;5090846;28;20206;-74
2021/10/11 05:10:16;;;;;;;16.53;12.93;;;5.60;99.90;;;;;;5090726;28;20234;-74
2021/10/11 05:12:44;;;;;;;17.57;13.67;;;5.70;99.90;;;;;;5091009;28;20340;-75
2021/10/11 05:15:12;;;;;;;18.10;14.27;;;5.60;99.90;;;;;;5091086;28;20215;-73
2021/10/11 05:17:40;;;;;;;18.73;15.50;;;5.70;99.90;;;;;;5090805;28;20297;-73
2021/10/11 05:20:09;;;;;;;14.70;12.70;;;5.70;99.90;;;;;;5091269;28;20290;-74
2021/10/11 05:22:39;;;;;;;19.33;15.70;;;5.70;99.90;;;;;;5092861;28;20204;-74
2021/10/11 05:25:08;;;;;;;17.17;13.07;;;5.70;99.90;;;;;;5092390;28;20489;-73
2021/10/11 05:27:36;;;;;;;15.37;12.87;;;5.70;99.90;;;;;;5092224;28;20274;-75
2021/10/11 05:30:06;;;;;;;16.13;14.17;;;5.80;99.90;;;;;;5092356;28;20226;-75
2021/10/11 05:32:34;;;;;;;16.83;13.97;;;5.80;99.90;;;;;;5090609;28;20290;-73
2021/10/11 05:35:03;;;;;;;15.77;12.87;;;5.80;99.90;;;;;;5090608;28;20222;-74
2021/10/11 05:37:31;;;;;;;16.97;12.57;;;5.80;99.90;;;;;;5091199;28;20249;-73
2021/10/11 05:40:00;;;;;;;15.77;13.13;;;5.90;99.90;;;;;;5091550;28;20199;-75
2021/10/11 05:42:28;;;;;;;13.03;11.53;;;5.90;99.90;;;;;;5092032;28;20575;-75
2021/10/11 05:44:56;;;;;;;16.17;13.13;;;5.90;99.90;;;;;;5091868;28;20693;-75
2021/10/11 05:47:23;;;;;;;15.83;12.27;;;6.00;99.90;;;;;;5091244;28;20294;-74
2021/10/11 05:49:51;;;;;;;13.83;11.77;;;6.10;99.90;;;;;;5091420;28;20206;-74
2021/10/11 05:52:19;;;;;;;16.20;12.33;;;6.10;99.90;;;;;;5091433;28;20233;-74
2021/10/11 05:54:49;;;;;;;15.03;11.93;;;6.10;99.90;;;;;;5091343;28;20226;-73
2021/10/11 05:57:18;;;;;;;15.60;12.37;;;6.20;99.90;;;;;;5090300;28;20729;-73
2021/10/11 05:59:46;;;;;;;18.20;11.83;;;6.20;99.90;;;;;;5090752;28;20231;-73
2021/10/11 06:02:13;;;;;;;13.77;12.27;;;6.20;99.90;;;;;;5091604;28;20203;-60
2021/10/11 06:04:43;;;;;;;15.77;12.57;;;6.30;99.90;;;;;;5091533;28;20626;-63
2021/10/11 06:07:11;;;;;;;17.37;12.53;;;6.30;99.90;;;;;;5090617;28;20234;-62
2021/10/11 06:09:38;;;;;;;15.40;12.40;;;6.40;99.90;;;;;;5091731;28;20321;-61
2021/10/11 06:12:07;;;;;;;16.33;12.63;;;6.40;99.90;;;;;;5091307;28;20293;-62
2021/10/11 06:14:56;;;;;;;13.70;11.57;;;6.40;99.90;;;;;;5091213;28;20222;-62
2021/10/11 06:17:23;;;;;;;16.33;11.83;;;6.50;99.90;;;;;;5091480;28;20246;-61
2021/10/11 06:19:52;;;;;;;14.47;12.10;;;6.50;99.90;;;;;;5091060;28;20656;-62
2021/10/11 06:22:20;;;;;;;19.17;12.73;;;6.50;99.90;;;;;;5091639;28;20324;-66
2021/10/11 06:24:48;;;;;;;15.80;12.53;;;6.60;99.90;;;;;;5091256;28;20209;-62
2021/10/11 06:27:16;;;;;;;15.60;12.03;;;6.60;99.90;;;;;;5091383;28;20301;-61
2021/10/11 06:29:44;;;;;;;16.70;12.67;;;6.70;99.90;;;;;;5091384;28;20494;-62
2021/10/11 06:32:13;;;;;;;15.10;12.53;;;6.80;99.90;;;;;;5094698;28;20614;-63
2021/10/11 06:34:41;;;;;;;14.97;12.40;;;6.90;99.90;;;;;;5094716;28;20260;-61
2021/10/11 06:37:09;;;;;;;15.87;11.90;;;6.90;99.90;;;;;;5095072;28;20204;-62
2021/10/11 06:39:37;;;;;;;15.27;12.10;;;7.10;99.90;;;;;;5095146;28;20211;-62
2021/10/11 06:42:05;;;;;;;15.00;13.40;;;7.10;99.90;;;;;;5094674;28;20579;-61
2021/10/11 06:44:32;;;;;;;16.43;13.27;;;7.20;99.90;;;;;;5094498;28;20207;-62
2021/10/11 06:47:00;;;;;;;17.00;13.30;;;7.20;99.90;;;;;;5094548;28;20210;-62
2021/10/11 06:49:30;;;;;;;15.57;13.80;;;7.20;99.90;;;;;;5094622;28;20239;-61
2021/10/11 06:51:58;;;;;;;15.50;12.60;;;7.40;99.90;;;;;;5094715;28;20236;-61
2021/10/11 06:54:26;;;;;;;17.77;13.23;;;7.50;99.90;;;;;;5094817;28;20212;-62
2021/10/11 06:56:54;;;;;;;14.27;12.77;;;7.60;99.90;;;;;;5094535;28;20208;-62
2021/10/11 06:59:22;;;;;;;18.20;12.30;;;7.60;99.90;;;;;;5094385;28;20200;-62
2021/10/11 07:01:50;;;;;;;15.43;12.97;;;7.80;99.90;;;;;;5094182;28;20206;-62
2021/10/11 07:04:36;;;;;;;15.77;12.93;;;7.90;99.90;;;;;;5093957;28;20541;-62
2021/10/11 07:07:04;;;;;;;16.00;12.30;;;8.10;99.90;;;;;;5094211;28;20204;-62
2021/10/11 07:09:32;;;;;;;14.60;11.77;;;8.30;99.90;;;;;;5094143;28;20315;-61
2021/10/11 07:12:00;;;;;;;13.87;11.77;;;8.50;99.90;;;;;;5094642;28;20242;-61
2021/10/11 07:14:28;;;;;;;15.17;12.13;;;8.60;99.90;;;;;;5093850;28;20711;-61
2021/10/11 07:16:56;;;;;;;15.63;12.17;;;8.70;99.90;;;;;;5094089;28;20287;-61
2021/10/11 07:19:24;;;;;;;14.50;11.80;;;8.90;99.90;;;;;;5093761;28;20313;-61
2021/10/11 07:21:53;;;;;;;16.53;12.57;;;9.00;99.90;;;;;;5094194;28;20218;-61
2021/10/11 07:24:21;;;;;;;14.77;12.47;;;9.10;99.90;;;;;;5093872;28;20196;-61
2021/10/11 07:26:49;;;;;;;16.17;12.20;;;9.10;99.90;;;;;;5094025;28;20291;-61
2021/10/11 07:29:17;;;;;;;15.13;12.83;;;9.20;99.90;;;;;;5093514;28;20200;-60
2021/10/11 07:31:45;;;;;;;16.03;12.70;;;9.30;99.90;;;;;;5093494;28;20218;-62
2021/10/11 07:34:13;;;;;;;19.77;13.17;;;9.40;99.90;;;;;;5093398;28;20295;-62
2021/10/11 07:36:41;;;;;;;18.20;13.43;;;9.40;99.90;;;;;;5093355;28;20299;-63
2021/10/11 07:39:10;;;;;;;18.20;13.67;;;9.40;99.90;;;;;;5092002;28;20733;-62
2021/10/11 07:41:38;;;;;;;17.10;14.43;;;9.40;99.90;;;;;;5093313;28;20290;-62
2021/10/11 07:44:06;;;;;;;16.50;13.17;;;9.40;99.90;;;;;;5093591;28;20250;-62
2021/10/11 07:46:34;;;;;;;16.67;13.93;;;9.40;99.90;;;;;;5093383;28;20671;-63
2021/10/11 07:49:10;;;;;;;18.13;14.30;;;9.40;99.90;;;;;;5093535;28;20272;-61
2021/10/11 07:51:38;;;;;;;18.83;14.60;;;9.50;99.90;;;;;;5093191;28;20303;-63
2021/10/11 07:54:06;;;;;;;19.63;16.10;;;9.40;99.90;;;;;;5093308;28;20721;-62
2021/10/11 07:56:37;;;;;;;18.70;13.77;;;9.50;99.90;;;;;;5093179;28;20220;-62
2021/10/11 07:59:05;;;;;;;18.87;14.60;;;9.50;99.90;;;;;;5093412;28;20212;-62
2021/10/11 08:01:34;;;;;;;17.60;14.93;;;9.40;99.90;;;;;;5093312;28;20298;-62
2021/10/11 08:04:03;;;;;;;18.53;14.23;;;9.40;99.90;;;;;;5093078;28;20230;-62
2021/10/11 08:06:31;;;;;;;18.03;15.47;;;9.50;99.90;;;;;;5093400;28;20206;-62
2021/10/11 08:08:59;;;;;;;18.53;14.90;;;9.40;99.90;;;;;;5093181;28;20647;-60
2021/10/11 08:11:27;;;;;;;20.30;15.07;;;9.40;99.90;;;;;;5092714;28;20234;-62
2021/10/11 08:13:58;;;;;;;17.37;14.03;;;9.30;99.90;;;;;;5092829;28;20663;-62
2021/10/11 08:16:26;;;;;;;18.07;15.37;;;9.40;99.90;;;;;;5092972;28;20231;-62
2021/10/11 08:18:54;;;;;;;18.73;15.90;;;9.40;99.90;;;;;;5093293;28;20267;-62
2021/10/11 08:21:22;;;;;;;21.07;15.27;;;9.40;99.90;;;;;;5093421;28;20569;-62
2021/10/11 08:23:53;;;;;;;20.77;16.47;;;9.50;99.90;;;;;;5093614;28;20203;-62
2021/10/11 08:26:21;;;;;;;21.60;15.50;;;9.40;99.90;;;;;;5092955;28;20231;-62
2021/10/11 08:28:50;;;;;;;18.30;14.57;;;9.50;99.90;;;;;;5092424;28;20283;-62
2021/10/11 08:31:20;;;;;;;20.90;14.90;;;9.50;99.90;;;;;;5092547;28;20204;-62
2021/10/11 08:33:48;;;;;;;20.17;14.60;;;9.40;99.90;;;;;;5092572;28;20284;-61
2021/10/11 08:36:16;;;;;;;23.43;15.83;;;9.30;99.90;;;;;;5092566;28;20247;-62
2021/10/11 08:38:44;;;;;;;20.40;15.40;;;9.30;99.90;;;;;;5092703;28;20568;-62
2021/10/11 08:41:12;;;;;;;19.97;15.63;;;9.20;99.90;;;;;;5092791;28;20300;-61
2021/10/11 08:43:41;;;;;;;19.23;15.83;;;9.20;99.90;;;;;;5092590;28;20295;-62
2021/10/11 08:46:09;;;;;;;22.53;16.93;;;9.20;99.90;;;;;;5092620;28;20191;-62
2021/10/11 08:48:38;;;;;;;22.63;17.27;;;9.20;99.90;;;;;;5092526;28;20666;-61
2021/10/11 08:51:07;;;;;;;25.47;17.77;;;9.30;99.90;;;;;;5091952;28;20204;-62
2021/10/11 08:53:36;;;;;;;20.03;16.40;;;9.50;99.90;;;;;;5091364;28;20542;-62
2021/10/11 08:56:05;;;;;;;23.10;17.23;;;9.30;99.90;;;;;;5092409;28;20311;-62
2021/10/11 08:58:43;;;;;;;23.53;17.93;;;9.30;99.90;;;;;;5092329;28;20202;-62
2021/10/11 09:01:11;;;;;;;27.23;18.53;;;9.40;99.90;;;;;;5092313;28;20203;-61
2021/10/11 09:03:41;;;;;;;24.50;18.53;;;9.30;99.90;;;;;;5092253;28;20200;-62
2021/10/11 09:06:11;;;;;;;23.73;18.77;;;9.40;99.90;;;;;;5090099;28;20200;-61
2021/10/11 09:08:41;;;;;;;23.60;19.33;;;9.40;99.90;;;;;;5092787;28;20678;-62
2021/10/11 09:11:11;;;;;;;25.10;20.27;;;9.40;99.90;;;;;;5092804;28;20231;-61
2021/10/11 09:13:44;;;;;;;26.97;21.03;;;9.40;99.90;;;;;;5092693;28;20659;-62
2021/10/11 09:16:16;;;;;;;29.67;22.10;;;9.30;99.90;;;;;;5072789;28;20209;-62
2021/10/11 09:18:51;;;;;;;27.93;23.43;;;9.30;99.90;;;;;;5072729;28;20242;-61
2021/10/11 09:21:30;;;;;;;28.77;22.07;;;9.20;99.90;;;;;;5072779;28;20195;-61
2021/10/11 09:24:06;;;;;;;33.47;25.67;;;9.20;99.90;;;;;;5087155;28;20191;-61
2021/10/11 09:26:45;;;;;;;34.70;25.17;;;9.20;99.90;;;;;;5092984;28;20224;-62
2021/10/11 09:29:14;;;;;;;37.00;26.63;;;9.30;99.90;;;;;;5092588;28;20654;-62
2021/10/11 09:31:48;;;;;;;33.07;25.50;;;9.20;99.90;;;;;;5092900;28;20206;-61
2021/10/11 09:34:20;;;;;;;37.83;27.07;;;9.20;99.90;;;;;;5092814;28;20578;-61
2021/10/11 09:36:57;;;;;;;33.80;26.20;;;9.20;99.90;;;;;;5092836;28;20204;-60
2021/10/11 09:39:27;;;;;;;37.83;28.53;;;9.20;99.90;;;;;;5092742;28;20191;-61
2021/10/11 09:41:55;;;;;;;38.03;27.90;;;9.10;99.90;;;;;;5092075;28;20227;-61
2021/10/11 09:44:24;;;;;;;40.37;28.00;;;9.10;99.90;;;;;;5092628;28;20287;-61
2021/10/11 09:46:56;;;;;;;41.70;29.60;;;9.10;99.90;;;;;;5092800;28;20589;-61
2021/10/11 09:49:25;;;;;;;43.40;31.27;;;9.10;99.90;;;;;;5092583;28;20275;-61
2021/10/11 09:51:54;;;;;;;42.20;31.70;;;9.10;99.90;;;;;;5092676;28;20291;-61
2021/10/11 09:54:23;;;;;;;42.43;30.47;;;9.20;99.90;;;;;;5092679;28;20286;-62
2021/10/11 09:56:51;;;;;;;42.27;29.93;;;9.20;99.90;;;;;;5092527;28;20330;-60
2021/10/11 09:59:19;;;;;;;46.83;31.70;;;9.20;99.90;;;;;;5092485;28;20250;-62
2021/10/11 10:01:48;;;;;;;41.10;30.87;;;9.30;99.90;;;;;;5092237;28;20204;-60
2021/10/11 10:04:21;;;;;;;49.20;31.97;;;9.30;99.90;;;;;;5092499;28;20200;-61
2021/10/11 10:06:51;;;;;;;47.00;33.23;;;9.30;99.90;;;;;;5096138;28;20718;-62
2021/10/11 10:09:21;;;;;;;44.17;32.60;;;9.30;99.90;;;;;;5096250;28;20195;-62
2021/10/11 10:11:50;;;;;;;48.87;32.40;;;9.40;99.90;;;;;;5096350;28;20303;-61
2021/10/11 10:14:21;;;;;;;44.60;32.13;;;9.50;99.90;;;;;;5088956;28;20213;-62
2021/10/11 10:16:50;;;;;;;44.77;31.43;;;9.60;99.90;;;;;;5075924;28;20311;-60
2021/10/11 10:19:18;;;;;;;44.37;31.40;;;9.60;99.90;;;;;;5075819;28;20228;-61
2021/10/11 10:21:46;;;;;;;41.83;29.80;;;9.70;99.90;;;;;;5075632;28;20201;-63
2021/10/11 10:24:24;;;;;;;46.60;30.53;;;9.80;99.90;;;;;;5075594;28;20207;-63
2021/10/11 10:27:03;;;;;;;45.20;29.23;;;9.90;99.90;;;;;;5075813;28;20181;-61
2021/10/11 10:29:42;;;;;;;44.07;30.60;;;10.00;99.90;;;;;;5075453;28;20716;-62
2021/10/11 10:32:11;;;;;;;41.10;29.10;;;10.10;99.90;;;;;;5076057;28;20280;-62
2021/10/11 10:34:40;;;;;;;39.83;29.03;;;10.10;99.90;;;;;;5075194;28;20672;-62
2021/10/11 10:37:09;;;;;;;40.17;28.77;;;10.10;99.90;;;;;;5075228;28;20786;-61
2021/10/11 10:39:40;;;;;;;41.97;28.23;;;10.10;99.90;;;;;;5075361;28;20227;-61
2021/10/11 10:42:10;;;;;;;36.27;27.53;;;10.20;99.90;;;;;;5075557;28;20227;-61
2021/10/11 10:44:45;;;;;;;40.77;28.83;;;10.30;99.90;;;;;;5075289;28;20705;-61
2021/10/11 10:47:13;;;;;;;37.17;27.97;;;10.30;99.90;;;;;;5075509;28;20299;-61
2021/10/11 10:49:47;;;;;;;38.70;27.80;;;10.40;99.90;;;;;;5075242;28;20296;-60
2021/10/11 10:52:17;;;;;;;38.00;27.73;;;10.50;99.90;;;;;;5075534;28;20596;-61
2021/10/11 10:54:49;;;;;;;41.93;27.33;;;10.50;99.90;;;;;;5075053;28;20675;-61
2021/10/11 10:57:21;;;;;;;35.43;27.00;;;10.70;99.90;;;;;;5074779;28;20603;-61
2021/10/11 10:59:53;;;;;;;33.93;25.60;;;10.90;99.90;;;;;;5075199;28;20199;-61
2021/10/11 11:02:29;;;;;;;34.20;25.40;;;10.90;99.90;;;;;;5075021;28;20188;-61
2021/10/11 11:04:59;;;;;;;33.87;25.97;;;11.00;99.90;;;;;;5074728;28;20725;-62
2021/10/11 11:07:29;;;;;;;33.77;23.80;;;11.10;99.90;;;;;;5074966;28;20197;-62
2021/10/11 11:09:59;;;;;;;32.97;24.37;;;11.30;99.90;;;;;;5074643;28;20233;-61
2021/10/11 11:12:29;;;;;;;32.27;24.33;;;11.30;99.90;;;;;;5074846;28;20547;-60
2021/10/11 11:14:57;;;;;;;27.50;22.60;;;11.30;99.90;;;;;;5087541;28;20729;-62
2021/10/11 11:17:29;;;;;;;31.97;23.33;;;11.40;99.90;;;;;;5094331;28;20314;-60
2021/10/11 11:19:57;;;;;;;31.07;23.83;;;11.50;99.90;;;;;;5094982;28;20290;-61
2021/10/11 11:22:30;;;;;;;29.03;21.80;;;11.50;99.90;;;;;;5094923;28;20283;-62
2021/10/11 11:25:03;;;;;;;26.87;21.67;;;11.60;99.90;;;;;;5094897;28;20242;-62
2021/10/11 11:27:33;;;;;;;26.37;22.10;;;11.60;99.90;;;;;;5094620;28;20183;-61
2021/10/11 11:30:06;;;;;;;27.07;21.63;;;11.60;99.90;;;;;;5094965;28;20206;-60
2021/10/11 11:32:44;;;;;;;29.30;21.87;;;11.50;99.90;;;;;;5094916;28;20271;-61
2021/10/11 11:35:20;;;;;;;27.87;21.43;;;11.50;99.90;;;;;;5094817;28;20190;-60
2021/10/11 11:37:49;;;;;;;29.93;22.50;;;11.40;99.90;;;;;;5094732;28;20204;-61
2021/10/11 11:40:20;;;;;;;30.23;23.00;;;11.30;99.90;;;;;;5094404;28;20891;-62
2021/10/11 11:42:49;;;;;;;29.87;21.73;;;11.30;99.90;;;;;;5094387;28;20187;-61
2021/10/11 11:45:18;;;;;;;30.47;22.70;;;11.30;99.90;;;;;;5094359;28;20207;-60
2021/10/11 11:47:47;;;;;;;31.17;22.03;;;11.40;99.90;;;;;;5094551;28;20239;-61
2021/10/11 11:50:22;;;;;;;27.00;21.20;;;11.50;99.90;;;;;;5094176;28;20196;-60
2021/10/11 11:53:00;;;;;;;27.00;20.80;;;11.60;99.90;;;;;;5094273;28;20266;-61
2021/10/11 11:55:30;;;;;;;26.60;21.40;;;11.70;99.90;;;;;;5094046;28;20627;-61
2021/10/11 11:57:59;;;;;;;25.63;20.27;;;11.90;99.90;;;;;;5094106;28;20222;-62
2021/10/11 12:00:31;;;;;;;24.93;18.47;;;12.20;99.90;;;;;;5093758;28;20738;-61
2021/10/11 12:03:02;;;;;;;24.77;20.55;;;12.40;99.90;;;;;;5094061;28;20189;-61
2021/10/11 12:05:31;;;;;;;24.27;18.07;;;12.60;99.90;;;;;;5093883;28;20237;-62
2021/10/11 12:07:58;;;;;;;23.20;17.97;;;12.80;99.90;;;;;;5093687;28;20609;-61
2021/10/11 12:10:27;;;;;;;22.97;18.57;;;12.80;99.90;;;;;;5093401;28;20326;-62
2021/10/11 12:13:00;;;;;;;26.83;17.33;;;12.90;99.90;;;;;;5093789;28;20282;-62
2021/10/11 12:15:31;;;;;;;22.43;17.57;;;13.10;99.90;;;;;;5093850;28;20219;-61
2021/10/11 12:18:03;;;;;;;21.33;17.57;;;13.20;99.90;;;;;;5093689;28;20200;-61
2021/10/11 12:20:46;;;;;;;19.02;15.93;;;13.10;99.90;;;;;;5093508;28;20244;-62
2021/10/11 12:23:15;;;;;;;19.70;16.63;;;13.00;99.90;;;;;;5093627;28;20711;-61
2021/10/11 12:25:44;;;;;;;18.17;15.77;;;12.90;99.90;;;;;;5093542;28;20384;-61
2021/10/11 12:28:15;;;;;;;18.42;15.13;;;12.80;99.90;;;;;;5092244;28;20639;-62
2021/10/11 12:30:44;;;;;;;21.75;16.48;;;12.90;99.90;;;;;;5093630;28;20267;-61
2021/10/11 12:33:14;;;;;;;20.47;14.43;;;12.90;99.90;;;;;;5093024;28;20567;-60
2021/10/11 12:35:43;;;;;;;21.55;15.38;;;13.00;99.90;;;;;;5093448;28;20287;-63
2021/10/11 12:38:13;;;;;;;18.93;14.47;;;13.20;99.90;;;;;;5093368;28;20311;-62
2021/10/11 12:40:43;;;;;;;19.20;14.15;;;13.30;99.90;;;;;;5093399;28;20196;-61
2021/10/11 12:43:18;;;;;;;18.58;14.10;;;13.40;99.90;;;;;;5092854;28;20212;-61
2021/10/11 12:45:47;;;;;;;17.88;14.95;;;13.30;99.90;;;;;;5093189;28;20188;-61